Time;durP1;ratioP1;P1;durP2;ratioP2;P2;SDS_P1;SDS_P2;PMS_P1;PMS_P2;Temp;Humidity;BMP_temperature;BMP_pressure;BME280_temperature;BME280_humidity;BME280_pressure;Samples;Min_cycle;Max_cycle;Signal;HPM_P1;HPM_P2
2022/05/16 00:02:19;;;;;;;6.95;4.88;;;;;;;14.53;80.97;99932.22;10461799;28;20565;-73
2022/05/16 00:07:21;;;;;;;6.05;4.45;;;;;;;15.22;80.96;100048.69;10462795;28;20037;-73
2022/05/16 00:12:22;;;;;;;12.07;4.97;;;;;;;15.10;80.67;100034.28;10462986;28;20439;-75
2022/05/16 00:17:23;;;;;;;9.48;5.03;;;;;;;15.14;81.28;100040.91;10461905;28;20044;-73
2022/05/16 00:22:27;;;;;;;6.45;4.80;;;;;;;15.13;82.82;100060.63;10462286;28;20393;-73
2022/05/16 00:27:33;;;;;;;7.88;4.97;;;;;;;15.37;81.39;100069.91;10460939;28;20138;-73
2022/05/16 00:32:35;;;;;;;7.38;4.70;;;;;;;15.47;80.62;100073.81;10460896;28;20482;-73
2022/05/16 00:37:35;;;;;;;6.13;4.57;;;;;;;15.54;80.33;100065.78;10461643;28;20041;-76
2022/05/16 00:42:36;;;;;;;9.05;5.13;;;;;;;15.28;80.19;100039.84;10461041;28;20036;-73
2022/05/16 00:47:37;;;;;;;18.48;5.28;;;;;;;15.51;79.62;100091.13;10461867;28;20481;-73
2022/05/16 00:52:46;;;;;;;9.55;5.13;;;;;;;15.41;81.04;100065.81;10460722;28;20439;-73
2022/05/16 00:57:51;;;;;;;8.50;4.78;;;;;;;14.79;79.51;99950.13;10459734;28;20076;-74
2022/05/16 01:08:22;;;;;;;6.38;4.35;;;;;;;15.78;78.91;100103.69;10459767;28;20011;-74
2022/05/16 01:13:24;;;;;;;9.40;4.70;;;;;;;15.56;77.57;100079.81;10459333;28;20064;-76
2022/05/16 01:18:26;;;;;;;8.50;4.13;;;;;;;15.88;76.72;100126.34;10459689;28;20041;-73
2022/05/16 01:23:31;;;;;;;6.43;4.00;;;;;;;15.78;75.41;100090.31;10458940;28;20493;-73
2022/05/16 01:28:32;;;;;;;7.28;3.38;;;;;;;15.01;74.08;99945.38;10459592;28;20496;-74
2022/05/16 01:33:33;;;;;;;5.93;3.20;;;;;;;15.26;72.80;99980.38;10458977;28;20095;-73
2022/05/16 01:38:34;;;;;;;7.55;3.10;;;;;;;14.60;71.66;99876.94;10459639;28;20089;-74
2022/05/16 01:43:40;;;;;;;6.13;3.33;;;;;;;15.39;70.60;100015.13;10458644;28;20041;-73
2022/05/16 01:48:41;;;;;;;8.10;3.30;;;;;;;15.50;70.39;100030.59;10457825;28;20047;-73
2022/05/16 01:53:43;;;;;;;8.82;2.95;;;;;;;16.11;69.21;100138.47;10458867;28;20047;-74
2022/05/16 01:58:45;;;;;;;7.72;3.20;;;;;;;16.23;68.14;100149.38;10456724;28;20033;-74
2022/05/16 02:03:47;;;;;;;6.97;2.80;;;;;;;16.23;67.96;100144.84;10457298;28;20040;-73
2022/05/16 02:08:48;;;;;;;5.80;2.63;;;;;;;16.29;67.60;100164.63;10457573;28;20045;-76
2022/05/16 02:13:49;;;;;;;7.45;2.97;;;;;;;16.14;67.67;100146.91;10456123;28;20041;-74
2022/05/16 02:18:50;;;;;;;10.00;3.10;;;;;;;15.10;67.18;99972.75;10457114;28;20041;-74
2022/05/16 02:29:10;;;;;;;4.22;2.70;;;;;;;16.10;66.31;100134.16;10452932;28;20725;-74
2022/05/16 02:34:11;;;;;;;7.47;3.28;;;;;;;16.25;66.44;100155.34;10457015;28;20044;-74
2022/05/16 02:39:13;;;;;;;6.25;3.33;;;;;;;16.39;66.31;100173.88;10456463;28;20065;-73
2022/05/16 02:44:15;;;;;;;5.75;2.80;;;;;;;15.50;66.21;100043.97;10456298;28;20045;-74
2022/05/16 02:49:15;;;;;;;8.43;3.08;;;;;;;16.39;66.50;100176.56;10466884;28;20459;-77
2022/05/16 02:54:16;;;;;;;4.90;2.95;;;;;;;16.40;66.27;100185.44;10433385;28;20061;-74
2022/05/16 02:59:17;;;;;;;7.85;3.65;;;;;;;16.55;65.70;100206.63;10421041;28;20041;-76
2022/05/16 04:01:22;;;;;;;10.68;3.00;;;;;;;17.05;64.69;100247.13;10435512;27;2262120;-73
2022/05/16 04:06:23;;;;;;;5.30;2.85;;;;;;;17.20;64.36;100246.84;10490460;28;20047;-71
2022/05/16 04:11:23;;;;;;;4.90;2.50;;;;;;;17.34;64.59;100246.59;10509507;28;20032;-73
2022/05/16 04:16:24;;;;;;;6.22;2.70;;;;;;;17.32;63.31;100208.41;10507007;28;20037;-72
2022/05/16 04:21:25;;;;;;;7.28;2.50;;;;;;;17.55;62.49;100228.50;10508565;28;20503;-74
2022/05/16 04:26:27;;;;;;;9.60;2.95;;;;;;;17.76;61.66;100243.44;10506686;28;20036;-74
2022/05/16 04:31:27;;;;;;;6.93;2.33;;;;;;;17.12;61.07;100116.44;10517131;28;20036;-72
2022/05/16 04:36:28;;;;;;;5.28;2.55;;;;;;;18.03;60.69;100241.41;10439342;28;20053;-76
2022/05/16 04:46:56;;;;;;;4.53;2.55;;;;;;;17.96;59.82;100257.59;10395097;28;20099;-78
2022/05/16 04:51:58;;;;;;;8.90;2.60;;;;;;;17.81;59.71;100242.84;10387773;28;20048;-77
2022/05/16 04:56:59;;;;;;;5.28;2.80;;;;;;;17.89;59.24;100248.75;10405748;28;20095;-85
2022/05/16 05:02:00;;;;;;;7.30;2.53;;;;;;;18.05;58.59;100250.09;10405772;28;20050;-84
2022/05/16 05:07:00;;;;;;;12.90;8.65;;;;;;;18.08;58.52;100273.00;10403813;28;20038;-79
2022/05/16 05:17:22;;;;;;;27.88;13.88;;;;;;;18.02;59.10;100255.91;10376897;28;20125;-77
2022/05/16 05:22:23;;;;;;;16.73;8.85;;;;;;;17.47;58.86;100134.75;10377886;28;20045;-78
2022/05/16 05:27:24;;;;;;;32.05;14.13;;;;;;;18.44;57.94;100269.59;10377724;28;20049;-80
2022/05/16 05:32:25;;;;;;;33.10;17.23;;;;;;;18.46;57.55;100262.13;10377478;28;20045;-81
2022/05/16 05:37:26;;;;;;;27.42;12.00;;;;;;;18.51;57.79;100258.75;10376650;28;20041;-77
2022/05/16 05:42:31;;;;;;;14.63;6.18;;;;;;;18.54;57.53;100269.91;10376886;28;20034;-77
2022/05/16 05:47:32;;;;;;;8.48;3.45;;;;;;;18.64;57.34;100274.78;10376734;28;20144;-78
2022/05/16 05:52:33;;;;;;;6.90;2.80;;;;;;;18.34;56.96;100226.25;10377317;28;20384;-79
2022/05/16 05:57:34;;;;;;;6.38;2.65;;;;;;;18.54;57.10;100261.81;10375624;28;20061;-79
2022/05/16 06:02:40;;;;;;;6.00;2.70;;;;;;;18.77;57.12;100288.13;10376203;28;20045;-78
2022/05/16 06:07:41;;;;;;;4.82;2.63;;;;;;;18.06;56.45;100159.50;10390720;28;20046;-81
2022/05/16 06:12:42;;;;;;;7.32;2.60;;;;;;;18.85;55.91;100265.50;10361274;28;20465;-74
2022/05/16 06:17:43;;;;;;;3.92;2.33;;;;;;;18.77;55.64;100255.84;10356961;28;20049;-78
2022/05/16 06:22:44;;;;;;;8.20;2.53;;;;;;;18.48;54.91;100195.47;10353328;28;20049;-84
2022/05/16 06:27:45;;;;;;;8.15;2.30;;;;;;;19.28;54.79;100297.69;10368071;28;20465;-78
2022/05/16 06:32:49;;;;;;;5.07;2.47;;;;;;;19.37;54.41;100307.09;10374889;28;20045;-79
2022/05/16 06:37:50;;;;;;;7.50;1.80;;;;;;;19.46;54.39;100261.81;10371164;28;20084;-78
2022/05/16 06:42:51;;;;;;;9.30;2.17;;;;;;;19.25;53.59;100181.50;10356986;28;20034;-77
2022/05/16 06:47:52;;;;;;;5.40;2.10;;;;;;;19.36;53.67;100168.09;10371177;28;20046;-80
2022/05/16 06:52:53;;;;;;;8.57;2.47;;;;;;;20.11;53.33;100273.75;10373668;28;20092;-77
2022/05/16 06:57:54;;;;;;;7.60;2.40;;;;;;;20.35;52.85;100274.59;10373018;28;20432;-77
2022/05/16 07:02:54;;;;;;;5.30;2.22;;;;;;;20.45;51.56;100261.31;10373068;28;20124;-80
2022/05/16 07:07:57;;;;;;;9.90;2.47;;;;;;;20.42;50.89;100161.97;10373846;28;20132;-77
2022/05/16 07:12:58;;;;;;;6.47;1.88;;;;;;;21.38;50.78;100257.66;10373081;28;20465;-77
2022/05/16 07:18:00;;;;;;;8.85;2.30;;;;;;;21.65;48.36;100259.75;10373438;28;20137;-77
2022/05/16 07:23:00;;;;;;;9.40;2.38;;;;;;;21.18;47.54;100147.31;10372826;28;20125;-81
2022/05/16 07:28:01;;;;;;;7.70;1.98;;;;;;;21.79;47.75;100258.41;10373384;28;20052;-80
2022/05/16 07:33:03;;;;;;;11.15;5.55;;;;;;;21.74;47.85;100254.78;10373129;28;20048;-80
2022/05/16 07:38:04;;;;;;;11.48;6.00;;;;;;;21.60;47.46;100173.19;10371099;28;20572;-78
2022/05/16 07:43:05;;;;;;;9.68;3.30;;;;;;;22.34;46.92;100225.22;10372807;28;20037;-81
2022/05/16 07:48:06;;;;;;;7.78;2.80;;;;;;;22.68;44.87;100197.25;10372077;28;20408;-75
2022/05/16 07:53:12;;;;;;;7.35;2.30;;;;;;;22.96;44.85;100245.03;10373098;28;20045;-78
2022/05/16 07:58:13;;;;;;;8.93;2.40;;;;;;;23.24;44.09;100242.13;10388108;28;20093;-80
2022/05/16 08:03:15;;;;;;;6.63;2.13;;;;;;;23.22;42.48;100152.13;10371891;28;20033;-79
2022/05/16 08:13:36;;;;;;;8.00;2.70;;;;;;;23.77;41.51;100209.84;10371510;28;20049;-80
2022/05/16 08:18:37;;;;;;;8.18;2.95;;;;;;;23.29;41.84;100181.72;10372001;28;20042;-84
2022/05/16 08:23:39;;;;;;;6.43;1.95;;;;;;;23.11;41.42;100089.94;10371625;28;20042;-75
2022/05/16 08:28:40;;;;;;;6.65;3.53;;;;;;;23.75;38.97;100186.75;10371385;28;20049;-79
2022/05/16 08:33:41;;;;;;;114.38;54.50;;;;;;;24.25;38.30;100199.06;10356758;28;20413;-77
2022/05/16 08:44:33;;;;;;;23.92;11.15;;;;;;;24.12;36.07;100083.66;10365333;28;20132;-78
2022/05/16 08:49:51;;;;;;;10.13;4.72;;;;;;;24.77;35.31;100181.97;10360525;28;20049;-76
2022/05/16 08:55:21;;;;;;;54.72;28.80;;;;;;;24.68;34.44;100186.25;10375989;28;20570;-80
2022/05/16 09:00:33;;;;;;;10.25;5.10;;;;;;;24.30;35.04;100150.22;10375516;28;20089;-74
2022/05/16 09:05:44;;;;;;;8.65;2.72;;;;;;;24.55;34.16;100165.84;10378635;28;20417;-77
2022/05/16 09:11:06;;;;;;;8.68;2.38;;;;;;;24.37;35.32;100154.31;10377778;28;20041;-76
2022/05/16 09:16:27;;;;;;;4.27;1.90;;;;;;;24.81;33.65;100178.44;10379252;28;20049;-75
2022/05/16 09:21:44;;;;;;;8.65;1.75;;;;;;;24.28;33.92;100187.66;10365211;28;20093;-78
2022/05/16 09:27:02;;;;;;;3.42;1.50;;;;;;;24.29;34.77;100184.72;10374152;28;20527;-76
2022/05/16 09:32:11;;;;;;;13.15;6.18;;;;;;;24.23;34.62;100172.19;10362414;28;20038;-76
2022/05/16 09:37:12;;;;;;;6.57;3.42;;;;;;;24.31;34.47;100146.44;10372281;28;20452;-76
2022/05/16 09:42:39;;;;;;;4.75;1.67;;;;;;;24.54;34.60;100150.66;10374858;28;20116;-79
2022/05/16 09:47:42;;;;;;;4.65;1.70;;;;;;;24.79;33.81;100136.34;10375643;28;20050;-77
2022/05/16 09:52:50;;;;;;;3.42;1.23;;;;;;;24.69;33.29;100082.81;10376673;28;20052;-78
2022/05/16 09:57:56;;;;;;;7.38;1.63;;;;;;;24.92;33.62;100182.03;10376850;28;20413;-76
2022/05/16 10:03:13;;;;;;;7.43;1.92;;;;;;;24.93;35.53;100199.97;10376432;28;20137;-75
2022/05/16 10:08:28;;;;;;;2.63;1.25;;;;;;;24.82;34.71;100171.94;10376330;28;20038;-75
2022/05/16 10:13:30;;;;;;;3.65;1.45;;;;;;;24.64;34.35;100155.28;10375070;28;20149;-75
2022/05/16 10:18:42;;;;;;;4.47;2.13;;;;;;;24.04;34.49;100081.44;10374465;28;20037;-74
2022/05/16 10:23:45;;;;;;;4.95;1.60;;;;;;;24.02;34.26;100157.69;10376081;28;20052;-79
2022/05/16 10:28:56;;;;;;;5.82;1.40;;;;;;;24.29;34.55;100175.72;10376012;28;20501;-79
2022/05/16 10:34:08;;;;;;;3.50;1.23;;;;;;;24.83;32.45;100151.03;10390285;28;20084;-79
2022/05/16 10:39:41;;;;;;;4.82;1.70;;;;;;;25.35;32.80;100176.44;10374906;28;20042;-80
2022/05/16 10:45:01;;;;;;;6.55;1.58;;;;;;;24.01;32.87;100054.81;10358880;28;20076;-78
2022/05/16 10:50:04;;;;;;;4.30;1.40;;;;;;;24.32;33.78;100169.78;10374571;28;20085;-80
2022/05/16 10:55:05;;;;;;;16.03;8.93;;;;;;;23.99;34.86;100179.06;10374492;28;20123;-77
2022/05/16 11:00:08;;;;;;;9.82;4.13;;;;;;;23.94;34.35;100081.38;10373628;28;20058;-78
2022/05/16 11:05:31;;;;;;;5.53;2.58;;;;;;;24.99;33.33;100179.06;10374035;28;20054;-77
2022/05/16 11:10:45;;;;;;;;;;;;;;;25.09;34.16;100175.53;10373873;28;20440;-76
2022/05/16 11:15:56;;;;;;;5.30;1.70;;;;;;;24.19;34.06;100050.81;10373040;28;19917;-79
2022/05/16 11:21:24;;;;;;;6.78;1.92;;;;;;;25.40;32.62;100174.56;10373324;28;20046;-73
2022/05/16 11:26:35;;;;;;;3.10;1.15;;;;;;;24.42;33.82;100083.00;10387897;28;20041;-77
2022/05/16 11:31:49;;;;;;;22.52;3.83;;;;;;;24.93;33.96;100180.94;10371824;28;20050;-76
2022/05/16 11:36:59;;;;;;;4.38;1.88;;;;;;;24.89;33.82;100181.72;10372253;28;20066;-77
2022/05/16 11:42:20;;;;;;;6.35;1.30;;;;;;;24.23;33.25;100117.06;10371714;28;20046;-77
2022/05/16 11:47:37;;;;;;;3.30;1.30;;;;;;;24.70;33.69;100167.81;10373071;28;20171;-78
2022/05/16 11:52:52;;;;;;;4.72;1.67;;;;;;;24.70;33.51;100170.53;10371549;28;20103;-75
2022/05/16 12:03:19;;;;;;;11.45;2.15;;;;;;;24.44;33.03;100121.56;10372493;28;20077;-76
2022/05/16 12:08:26;;;;;;;12.95;1.90;;;;;;;24.63;32.60;100187.06;10372268;28;20056;-77
2022/05/16 12:13:32;;;;;;;7.07;1.50;;;;;;;24.18;33.01;100150.44;10372136;28;20068;-74
2022/05/16 12:18:38;;;;;;;2.20;1.30;;;;;;;24.17;32.37;100166.97;10371936;28;20038;-77
2022/05/16 12:23:48;;;;;;;6.32;1.77;;;;;;;24.13;33.21;100170.22;10395925;28;20517;-74
2022/05/16 12:29:08;;;;;;;3.83;1.30;;;;;;;24.24;33.13;100170.28;10380405;28;20042;-76
2022/05/16 12:34:08;;;;;;;7.22;1.70;;;;;;;23.72;33.18;100114.84;10378639;28;20037;-73
2022/05/16 12:39:38;;;;;;;5.35;1.77;;;;;;;24.10;33.11;100154.44;10349295;28;20054;-78
2022/05/16 12:44:53;;;;;;;5.15;1.38;;;;;;;24.86;31.90;100157.81;10368700;28;20046;-76
2022/05/16 12:50:24;;;;;;;2.40;1.38;;;;;;;25.27;31.19;100162.28;10378667;28;20053;-74
2022/05/16 12:55:47;;;;;;;4.68;1.45;;;;;;;24.99;30.92;100158.13;10376109;28;20065;-75
2022/05/16 13:00:51;;;;;;;;;;;;;;;24.97;32.23;100160.28;10372097;28;20057;-76
2022/05/16 13:06:03;;;;;;;7.47;1.85;;;;;;;24.75;31.81;100157.78;10376055;28;19968;-84
2022/05/16 13:11:37;;;;;;;3.42;1.40;;;;;;;24.94;31.82;100139.09;10373200;28;20041;-78
2022/05/16 13:16:50;;;;;;;6.13;1.60;;;;;;;25.08;32.08;100165.75;10372041;28;20137;-75
2022/05/16 13:21:53;;;;;;;3.33;1.50;;;;;;;25.24;31.82;100162.00;10377311;28;20058;-75
2022/05/16 13:32:20;;;;;;;3.15;1.33;;;;;;;24.33;31.19;100038.41;10377263;28;20042;-75
2022/05/16 13:37:31;;;;;;;5.22;1.40;;;;;;;25.04;30.98;100130.97;10377520;28;20128;-74
2022/05/16 13:42:34;;;;;;;4.05;1.50;;;;;;;24.97;31.68;100176.59;10378111;28;20551;-75
2022/05/16 13:47:40;;;;;;;4.65;1.55;;;;;;;24.90;31.54;100183.38;10392058;28;20042;-76
2022/05/16 13:52:41;;;;;;;4.05;1.23;;;;;;;24.67;31.59;100116.75;10376250;28;20042;-72
2022/05/16 13:57:43;;;;;;;2.55;1.20;;;;;;;24.06;32.05;100069.22;10374946;28;20116;-77
2022/05/16 14:02:49;;;;;;;9.77;1.75;;;;;;;24.18;32.37;100168.63;10376541;28;20528;-77
2022/05/16 14:07:50;;;;;;;5.47;1.65;;;;;;;23.21;32.52;100096.28;10376145;28;20042;-77
2022/05/16 14:13:10;;;;;;;3.38;1.20;;;;;;;23.42;32.52;100058.47;10376670;28;20046;-77
2022/05/16 14:18:10;;;;;;;6.10;1.48;;;;;;;23.76;32.97;100164.00;10376433;28;20045;-77
2022/05/16 14:23:40;;;;;;;7.28;1.70;;;;;;;23.49;33.43;100167.53;10374908;28;20498;-78
2022/05/16 14:28:47;;;;;;;5.93;1.40;;;;;;;23.23;33.63;100152.94;10375843;28;20125;-76
2022/05/16 14:33:58;;;;;;;5.78;1.20;;;;;;;23.03;33.88;100137.28;10374547;28;20069;-77
2022/05/16 14:39:27;;;;;;;5.38;1.20;;;;;;;23.15;34.36;100184.00;10374727;28;20091;-77
2022/05/16 14:44:43;;;;;;;5.68;1.45;;;;;;;22.98;34.77;100181.41;10368922;28;20064;-80
2022/05/16 14:49:44;;;;;;;4.28;1.45;;;;;;;22.82;34.72;100182.25;10333765;28;20046;-77
2022/05/16 14:54:58;;;;;;;7.22;1.42;;;;;;;22.62;35.55;100154.94;10349853;28;20033;-77
2022/05/16 15:00:00;;;;;;;7.68;1.50;;;;;;;22.01;35.75;100088.09;10374583;28;20062;-76
2022/05/16 15:05:01;;;;;;;4.07;1.42;;;;;;;22.31;35.87;100179.69;10364424;28;20086;-75
2022/05/16 15:10:03;;;;;;;8.40;2.00;;;;;;;21.84;36.64;100117.88;10342525;28;20041;-75
2022/05/16 15:15:05;;;;;;;6.45;1.90;;;;;;;22.04;37.22;100184.16;10333470;28;20046;-78
2022/05/16 15:20:06;;;;;;;9.85;2.42;;;;;;;21.68;37.35;100097.06;10339060;28;20513;-74
2022/05/16 15:25:10;;;;;;;9.93;2.53;;;;;;;22.29;37.56;100206.22;10348541;28;20413;-73
2022/05/16 15:30:12;;;;;;;9.77;2.03;;;;;;;21.93;38.31;100177.78;10350998;28;20030;-74
2022/05/16 15:35:17;;;;;;;20.02;6.72;;;;;;;21.73;39.35;100164.75;10351841;28;20042;-74
2022/05/16 15:40:18;;;;;;;49.03;23.33;;;;;;;22.04;39.82;100232.84;10362838;28;20044;-74
2022/05/16 15:45:23;;;;;;;47.95;27.98;;;;;;;21.49;40.90;100184.88;10353162;28;20045;-73
2022/05/16 15:50:30;;;;;;;75.25;41.47;;;;;;;21.16;42.03;100206.16;10333569;28;20188;-75
2022/05/16 15:55:31;;;;;;;27.60;14.63;;;;;;;20.09;43.36;100122.13;10359126;28;20038;-73
2022/05/16 16:00:32;;;;;;;30.95;14.50;;;;;;;20.24;44.68;100217.69;10369002;28;20409;-74
2022/05/16 16:10:54;;;;;;;25.70;13.27;;;;;;;19.17;46.58;100182.66;10372191;28;20124;-73
2022/05/16 16:15:57;;;;;;;26.92;12.60;;;;;;;19.01;47.60;100219.09;10353929;28;20046;-73
2022/05/16 16:20:58;;;;;;;35.55;17.80;;;;;;;19.40;47.80;100303.13;10370804;28;20516;-73
2022/05/16 16:25:59;;;;;;;41.42;21.60;;;;;;;19.24;48.46;100304.59;10370685;28;20052;-73
2022/05/16 16:31:00;;;;;;;60.35;29.15;;;;;;;18.98;49.12;100291.44;10371737;28;20486;-76
2022/05/16 16:36:02;;;;;;;65.65;31.33;;;;;;;18.32;49.69;100204.13;10372003;28;20049;-74
2022/05/16 16:41:04;;;;;;;64.85;33.42;;;;;;;18.83;50.61;100307.94;10366403;28;20046;-75
2022/05/16 16:46:11;;;;;;;71.38;33.85;;;;;;;18.76;52.13;100312.59;10348289;28;20037;-74
2022/05/16 17:02:02;;;;;;;58.38;29.17;;;;;;;18.10;53.82;100269.06;10365531;28;20053;-73
2022/05/16 17:07:07;;;;;;;49.33;22.98;;;;;;;18.42;54.40;100346.97;10374451;28;20041;-74
2022/05/16 17:12:10;;;;;;;46.60;18.85;;;;;;;18.15;55.54;100343.66;10378295;28;20041;-74
2022/05/16 17:17:12;;;;;;;47.57;20.40;;;;;;;17.83;56.26;100357.13;10377975;28;20038;-74
2022/05/16 17:22:15;;;;;;;45.38;17.63;;;;;;;17.15;57.01;100258.25;10377404;28;20042;-73
2022/05/16 17:27:16;;;;;;;41.30;17.38;;;;;;;17.34;57.65;100331.69;10378487;28;20046;-73
2022/05/16 17:32:18;;;;;;;89.25;34.65;;;;;;;16.63;58.64;100241.25;10377617;28;20042;-78
2022/05/16 17:37:19;;;;;;;67.18;26.52;;;;;;;17.29;59.13;100369.91;10376198;28;20470;-75
2022/05/16 17:42:20;;;;;;;103.65;48.78;;;;;;;16.13;60.00;100220.31;10377211;28;20102;-73
2022/05/16 17:47:21;;;;;;;42.13;19.80;;;;;;;16.92;60.70;100376.81;10376546;28;20072;-73
2022/05/16 17:52:23;;;;;;;78.78;30.67;;;;;;;16.77;61.35;100389.63;10377545;28;20038;-73
2022/05/16 17:57:23;;;;;;;81.20;33.38;;;;;;;16.65;62.10;100394.75;10372913;28;20140;-74
2022/05/16 18:02:27;;;;;;;51.40;22.00;;;;;;;16.19;63.67;100341.94;10375858;28;20132;-73
2022/05/16 18:07:28;;;;;;;116.68;60.33;;;;;;;16.28;62.60;100370.19;10376301;28;20104;-73
2022/05/16 18:12:45;;;;;;;90.32;43.60;;;;;;;16.03;63.01;100353.03;10375624;28;20045;-73
2022/05/16 18:17:47;;;;;;;58.55;25.92;;;;;;;16.06;64.12;100412.41;10375276;28;20489;-73
2022/05/16 18:22:52;;;;;;;37.60;14.43;;;;;;;14.49;65.00;100161.63;10375248;28;20100;-73
2022/05/16 18:27:53;;;;;;;24.25;9.70;;;;;;;15.89;64.67;100406.59;10375499;28;20485;-73
2022/05/16 18:32:55;;;;;;;20.27;6.82;;;;;;;15.67;65.15;100375.56;10374911;28;20107;-73
2022/05/16 18:37:55;;;;;;;29.90;11.25;;;;;;;15.56;65.79;100378.84;10374576;28;20072;-73
2022/05/16 18:53:36;;;;;;;37.75;12.98;;;;;;;15.33;66.70;100388.00;10371348;28;20512;-73
2022/05/16 18:58:38;;;;;;;48.28;13.95;;;;;;;15.33;67.49;100389.84;10372279;28;20516;-73
2022/05/16 19:03:39;;;;;;;34.85;12.43;;;;;;;14.57;67.91;100279.13;10374690;28;20115;-74
2022/05/16 19:08:43;;;;;;;64.80;21.35;;;;;;;15.34;68.05;100413.72;10373657;28;20068;-73
2022/05/16 19:13:44;;;;;;;54.42;20.33;;;;;;;15.34;68.68;100407.53;10374336;28;20041;-76
2022/05/16 19:18:46;;;;;;;32.80;15.02;;;;;;;15.26;69.10;100387.97;10372939;28;20049;-73
2022/05/16 19:23:47;;;;;;;40.28;14.82;;;;;;;14.68;68.97;100282.25;10373966;28;20405;-74
2022/05/16 19:34:07;;;;;;;23.73;8.20;;;;;;;15.57;69.43;100413.44;10372786;28;20049;-74
2022/05/16 19:39:08;;;;;;;16.58;6.75;;;;;;;15.59;69.01;100399.88;10372561;28;20115;-73
2022/05/16 19:44:09;;;;;;;17.77;5.65;;;;;;;15.13;67.95;100304.94;10372296;28;20180;-73
2022/05/16 19:49:11;;;;;;;13.10;4.75;;;;;;;15.78;67.12;100396.47;10372122;28;20584;-74
2022/05/16 19:54:13;;;;;;;11.23;3.03;;;;;;;15.95;66.04;100405.78;10371964;28;20042;-73
2022/05/16 19:59:20;;;;;;;10.38;3.83;;;;;;;16.13;66.70;100423.16;10372191;28;20064;-73
2022/05/16 20:04:22;;;;;;;12.43;3.85;;;;;;;16.20;65.25;100414.09;10372306;28;20072;-73
2022/05/16 20:09:23;;;;;;;13.27;4.70;;;;;;;16.22;65.58;100413.06;10371823;28;20052;-73
2022/05/16 20:14:24;;;;;;;6.10;3.10;;;;;;;16.32;64.96;100422.34;10372405;28;20125;-73
2022/05/16 20:19:25;;;;;;;10.30;2.60;;;;;;;15.89;63.51;100338.81;10372179;28;20136;-75
2022/05/16 20:29:47;;;;;;;8.70;2.80;;;;;;;16.53;61.74;100417.84;10351264;28;20080;-73
2022/05/16 20:34:48;;;;;;;10.30;2.70;;;;;;;16.53;60.79;100410.63;10372401;28;20045;-75
2022/05/16 20:39:49;;;;;;;7.43;3.30;;;;;;;16.63;60.18;100415.56;10372593;28;20144;-74
2022/05/16 20:44:50;;;;;;;7.47;2.00;;;;;;;16.03;59.75;100315.53;10379480;28;20398;-74
2022/05/16 20:49:51;;;;;;;7.60;2.22;;;;;;;16.71;59.41;100428.78;10379619;28;20067;-75
2022/05/16 20:54:52;;;;;;;4.88;1.55;;;;;;;16.70;59.04;100429.84;10378633;28;20042;-73
2022/05/16 20:59:52;;;;;;;6.35;1.83;;;;;;;16.42;58.87;100379.06;10378282;28;20068;-73
2022/05/16 21:04:54;;;;;;;4.75;2.17;;;;;;;16.66;58.95;100429.44;10378656;28;20050;-74
2022/05/16 21:09:55;;;;;;;11.48;2.13;;;;;;;16.52;58.51;100418.91;10378884;28;20129;-76
2022/05/16 21:14:55;;;;;;;6.78;2.10;;;;;;;16.52;58.66;100419.72;10378132;28;20125;-73
2022/05/16 21:19:56;;;;;;;5.30;2.30;;;;;;;16.63;59.23;100439.72;10378516;28;20096;-73
2022/05/16 21:24:57;;;;;;;6.00;2.22;;;;;;;16.44;59.01;100410.00;10377906;28;20041;-73
2022/05/16 21:29:59;;;;;;;8.68;2.40;;;;;;;16.55;58.94;100438.06;10377769;28;20049;-74
2022/05/16 21:35:00;;;;;;;6.35;2.30;;;;;;;15.90;59.46;100333.22;10377226;28;20108;-73
2022/05/16 21:40:01;;;;;;;6.93;2.33;;;;;;;16.47;59.73;100427.53;10377591;28;20045;-73
2022/05/16 21:45:22;;;;;;;5.60;2.20;;;;;;;15.56;59.94;100275.25;10377356;28;20037;-73
2022/05/16 21:50:26;;;;;;;7.28;2.13;;;;;;;16.05;60.49;100369.75;10376025;28;20053;-73
2022/05/16 21:55:27;;;;;;;5.68;2.20;;;;;;;14.93;60.25;100205.88;10376884;28;20046;-73
2022/05/16 22:00:30;;;;;;;4.32;2.15;;;;;;;16.22;60.71;100415.75;10376934;28;20080;-73
2022/05/16 22:05:34;;;;;;;5.50;2.35;;;;;;;16.08;61.30;100437.16;10376262;28;20042;-73
2022/05/16 22:10:44;;;;;;;11.27;2.90;;;;;;;16.03;61.82;100417.34;10375653;28;20052;-73
2022/05/16 22:15:45;;;;;;;6.90;2.25;;;;;;;15.88;61.32;100418.31;10375485;28;20045;-73
2022/05/16 22:20:45;;;;;;;9.90;2.75;;;;;;;15.61;61.94;100409.31;10375597;28;20069;-72
2022/05/16 22:25:47;;;;;;;8.85;2.80;;;;;;;15.34;62.28;100408.38;10375803;28;20042;-74
2022/05/16 22:30:47;;;;;;;10.68;2.80;;;;;;;15.25;62.42;100421.09;10374731;28;20133;-73
2022/05/16 22:35:48;;;;;;;18.40;3.80;;;;;;;15.07;63.28;100421.59;10374775;28;20133;-72
2022/05/16 22:40:49;;;;;;;10.95;3.35;;;;;;;14.70;64.02;100385.31;10374444;28;20038;-73
2022/05/16 22:45:50;;;;;;;14.15;3.38;;;;;;;14.96;64.16;100429.34;10374403;28;20053;-73
2022/05/16 22:50:51;;;;;;;13.73;3.30;;;;;;;14.68;63.86;100391.88;10374854;28;20046;-72
2022/05/16 22:55:57;;;;;;;7.90;3.03;;;;;;;14.85;64.69;100425.34;10374464;28;20111;-73
2022/05/16 23:00:58;;;;;;;5.90;2.00;;;;;;;14.81;63.27;100418.75;10374694;28;20089;-73
2022/05/16 23:06:03;;;;;;;5.50;2.35;;;;;;;14.80;64.48;100427.75;10372895;28;20084;-73
2022/05/16 23:11:06;;;;;;;7.22;2.40;;;;;;;14.69;63.27;100421.09;10373455;28;20073;-74
2022/05/16 23:16:08;;;;;;;7.60;2.88;;;;;;;13.98;62.79;100300.81;10374052;28;20070;-73
2022/05/16 23:21:09;;;;;;;9.82;2.65;;;;;;;14.15;62.90;100333.44;10372926;28;20076;-73
2022/05/16 23:26:10;;;;;;;8.65;2.80;;;;;;;14.53;63.30;100418.69;10374061;28;20080;-72
2022/05/16 23:31:11;;;;;;;8.30;2.90;;;;;;;14.24;63.44;100392.88;10373812;28;20066;-73
2022/05/16 23:36:14;;;;;;;9.38;2.50;;;;;;;13.93;63.92;100372.66;10372659;28;20062;-74
2022/05/16 23:41:16;;;;;;;7.27;2.43;;;;;;;13.97;64.02;100422.03;10373491;28;20042;-72
2022/05/16 23:46:18;;;;;;;6.07;2.33;;;;;;;13.80;64.55;100409.91;10373029;28;20096;-73
2022/05/16 23:51:19;;;;;;;6.80;2.45;;;;;;;13.66;64.74;100431.06;10372574;28;20136;-72
2022/05/16 23:56:20;;;;;;;6.78;2.17;;;;;;;13.31;65.77;100399.81;10372155;28;20128;-73
